Time;durP1;ratioP1;P1;durP2;ratioP2;P2;SDS_P1;SDS_P2;PMS_P1;PMS_P2;Temp;Humidity;BMP_temperature;BMP_pressure;BME280_temperature;BME280_humidity;BME280_pressure;Samples;Min_cycle;Max_cycle;Signal;HPM_P1;HPM_P2
2023/06/18 00:00:32;;;;;;;11.38;7.15;;;15.30;77.00;;;;;;5016705;28;20033;-72
2023/06/18 00:02:58;;;;;;;11.90;7.22;;;15.30;76.80;;;;;;4998752;28;20033;-72
2023/06/18 00:05:23;;;;;;;12.48;7.30;;;15.30;76.90;;;;;;5017014;28;20034;-73
2023/06/18 00:07:49;;;;;;;12.48;7.75;;;15.30;77.10;;;;;;5012830;28;20382;-72
2023/06/18 00:10:14;;;;;;;10.93;6.85;;;15.30;77.00;;;;;;5017438;28;20431;-73
2023/06/18 00:12:40;;;;;;;11.05;6.93;;;15.20;77.20;;;;;;5016398;28;20032;-73
2023/06/18 00:15:06;;;;;;;10.95;6.90;;;15.20;77.20;;;;;;5016872;28;20097;-72
2023/06/18 00:17:32;;;;;;;12.40;7.80;;;15.20;76.90;;;;;;5016787;28;20104;-72
2023/06/18 00:19:58;;;;;;;11.57;7.32;;;15.30;77.00;;;;;;5015441;28;20089;-72
2023/06/18 00:22:23;;;;;;;11.75;7.57;;;15.30;77.30;;;;;;5014287;28;20105;-72
2023/06/18 00:24:49;;;;;;;11.15;7.15;;;15.20;77.20;;;;;;4999595;28;20427;-72
2023/06/18 00:27:15;;;;;;;11.95;7.78;;;15.20;77.50;;;;;;5013794;28;20038;-72
2023/06/18 00:29:46;;;;;;;11.48;7.38;;;15.20;77.10;;;;;;5016956;28;20034;-73
2023/06/18 00:32:15;;;;;;;12.20;7.40;;;15.20;76.90;;;;;;5015951;28;20034;-73
2023/06/18 00:34:41;;;;;;;11.52;7.60;;;15.30;76.70;;;;;;5016875;28;20022;-73
2023/06/18 00:37:09;;;;;;;11.05;7.38;;;15.30;76.70;;;;;;4997643;28;20033;-73
2023/06/18 00:39:38;;;;;;;12.88;7.07;;;15.30;76.40;;;;;;5016954;28;20022;-73
2023/06/18 00:42:05;;;;;;;10.18;7.25;;;15.40;76.10;;;;;;5015389;28;20049;-73
2023/06/18 00:44:34;;;;;;;9.85;7.35;;;15.50;76.10;;;;;;5005290;28;20419;-73
2023/06/18 00:47:00;;;;;;;11.98;6.70;;;15.50;76.10;;;;;;4980444;28;20419;-73
2023/06/18 00:49:28;;;;;;;12.02;7.38;;;15.50;76.10;;;;;;5016390;28;20022;-73
2023/06/18 00:51:54;;;;;;;11.18;7.32;;;15.40;76.10;;;;;;5014170;28;20037;-73
2023/06/18 00:54:20;;;;;;;10.43;7.05;;;15.50;76.00;;;;;;5017267;28;20026;-73
2023/06/18 00:56:52;;;;;;;9.45;7.10;;;15.50;75.70;;;;;;5016586;28;20026;-73
2023/06/18 00:59:24;;;;;;;12.32;6.97;;;15.60;75.80;;;;;;5017154;28;20026;-73
2023/06/18 01:01:53;;;;;;;9.82;6.78;;;15.60;76.00;;;;;;5017415;28;20049;-73
2023/06/18 01:04:20;;;;;;;9.82;7.15;;;15.60;75.80;;;;;;5016097;28;20044;-73
2023/06/18 01:06:51;;;;;;;10.63;7.20;;;15.50;76.00;;;;;;5013903;28;20030;-73
2023/06/18 01:09:21;;;;;;;10.00;7.43;;;15.50;76.10;;;;;;5014513;28;20051;-73
2023/06/18 01:11:51;;;;;;;9.48;7.20;;;15.60;76.20;;;;;;5015501;28;20327;-73
2023/06/18 01:14:21;;;;;;;10.63;7.43;;;15.60;75.80;;;;;;5012615;28;20300;-73
2023/06/18 01:16:53;;;;;;;11.80;7.85;;;15.60;75.90;;;;;;5014303;28;20014;-73
2023/06/18 01:19:35;;;;;;;10.25;7.07;;;15.50;76.50;;;;;;5012926;28;20058;-73
2023/06/18 01:22:08;;;;;;;11.15;7.30;;;15.40;76.40;;;;;;5011802;28;20449;-73
2023/06/18 01:24:38;;;;;;;11.15;7.60;;;15.30;76.50;;;;;;5014932;28;20040;-73
2023/06/18 01:27:05;;;;;;;10.75;7.60;;;15.30;76.40;;;;;;5014491;28;20292;-73
2023/06/18 01:29:31;;;;;;;10.73;7.03;;;15.40;76.20;;;;;;5015044;28;20148;-73
2023/06/18 01:31:57;;;;;;;9.98;7.25;;;15.40;75.90;;;;;;5006607;28;20415;-73
2023/06/18 01:34:24;;;;;;;12.15;7.53;;;15.50;75.70;;;;;;4994388;28;20028;-73
2023/06/18 01:37:20;;;;;;;11.98;7.10;;;15.60;74.70;;;;;;5011495;28;20125;-73
2023/06/18 01:40:21;;;;;;;10.13;7.20;;;15.70;74.60;;;;;;5009084;28;20050;-73
2023/06/18 01:42:54;;;;;;;9.60;7.00;;;15.80;74.50;;;;;;5014546;28;20066;-73
2023/06/18 01:45:30;;;;;;;9.88;7.28;;;15.80;74.70;;;;;;5014819;28;20026;-73
2023/06/18 01:48:02;;;;;;;12.52;7.25;;;15.80;74.20;;;;;;5014046;28;20030;-73
2023/06/18 01:50:28;;;;;;;12.63;7.30;;;15.80;74.10;;;;;;5015367;28;20075;-73
2023/06/18 01:52:56;;;;;;;9.73;6.82;;;15.90;73.90;;;;;;5013144;28;20030;-73
2023/06/18 01:55:23;;;;;;;9.23;7.13;;;15.90;74.00;;;;;;5015673;28;20026;-73
2023/06/18 01:57:49;;;;;;;10.15;7.30;;;15.90;73.60;;;;;;5013838;28;20029;-73
2023/06/18 02:00:15;;;;;;;10.52;6.93;;;16.00;73.30;;;;;;5015117;28;20419;-73
2023/06/18 02:02:40;;;;;;;13.07;7.43;;;16.10;73.20;;;;;;5014317;28;20041;-73
2023/06/18 02:05:07;;;;;;;11.68;7.13;;;16.10;72.70;;;;;;5013831;28;20042;-73
2023/06/18 02:07:32;;;;;;;11.88;7.00;;;16.10;72.20;;;;;;5011711;28;20528;-73
2023/06/18 02:09:58;;;;;;;10.65;6.97;;;16.10;73.10;;;;;;5016148;28;20058;-73
2023/06/18 02:12:23;;;;;;;12.05;6.47;;;16.10;72.50;;;;;;5013740;28;20084;-73
2023/06/18 02:14:49;;;;;;;14.80;7.07;;;16.10;71.90;;;;;;5015164;28;20431;-73
2023/06/18 02:17:15;;;;;;;10.38;6.82;;;16.20;72.00;;;;;;5014907;28;20037;-73
2023/06/18 02:19:40;;;;;;;10.77;7.30;;;16.30;71.80;;;;;;5014087;28;20362;-73
2023/06/18 02:22:06;;;;;;;10.93;6.97;;;16.20;71.60;;;;;;5013848;28;20029;-73
2023/06/18 02:24:32;;;;;;;9.10;6.45;;;16.10;71.80;;;;;;5015476;28;20030;-73
2023/06/18 02:26:58;;;;;;;9.43;7.03;;;16.10;72.20;;;;;;5013044;28;20029;-73
2023/06/18 02:29:23;;;;;;;9.80;6.57;;;16.00;72.80;;;;;;5014828;28;20095;-73
2023/06/18 02:31:49;;;;;;;10.25;6.90;;;15.90;73.40;;;;;;5014987;28;20034;-73
2023/06/18 02:34:15;;;;;;;10.07;6.57;;;15.70;73.10;;;;;;5014306;28;20026;-73
2023/06/18 02:36:40;;;;;;;9.88;6.82;;;15.60;74.10;;;;;;5009285;28;20014;-73
2023/06/18 02:39:07;;;;;;;11.52;7.35;;;15.30;75.30;;;;;;5014648;28;20056;-73
2023/06/18 02:41:33;;;;;;;10.80;6.72;;;15.10;76.60;;;;;;5015019;28;20075;-73
2023/06/18 02:43:59;;;;;;;9.48;7.22;;;15.00;77.20;;;;;;5019622;28;20108;-73
2023/06/18 02:46:25;;;;;;;12.73;7.57;;;14.80;77.30;;;;;;5015630;28;20061;-73
2023/06/18 02:48:50;;;;;;;12.30;7.72;;;14.70;78.00;;;;;;4997477;28;20365;-73
2023/06/18 02:51:16;;;;;;;10.15;7.03;;;14.60;78.40;;;;;;4996100;28;20033;-73
2023/06/18 02:53:41;;;;;;;10.40;7.50;;;14.60;78.30;;;;;;4998106;28;20068;-73
2023/06/18 02:56:07;;;;;;;10.45;7.35;;;14.50;78.30;;;;;;5005649;28;20083;-73
2023/06/18 02:58:35;;;;;;;9.68;7.18;;;14.40;79.30;;;;;;4997261;28;20026;-73
2023/06/18 03:01:04;;;;;;;10.35;6.30;;;14.30;80.00;;;;;;5002723;28;20029;-73
2023/06/18 03:03:32;;;;;;;10.25;7.53;;;14.20;79.80;;;;;;5014589;28;20030;-73
2023/06/18 03:05:58;;;;;;;10.55;7.78;;;14.20;80.90;;;;;;5013089;28;20037;-74
2023/06/18 03:08:27;;;;;;;9.38;7.10;;;14.20;79.90;;;;;;5013805;28;20034;-73
2023/06/18 03:10:53;;;;;;;9.75;7.20;;;14.20;80.60;;;;;;5014020;28;20291;-73
2023/06/18 03:13:18;;;;;;;10.55;7.50;;;14.30;79.40;;;;;;5014861;28;20038;-73
2023/06/18 03:15:44;;;;;;;9.40;6.57;;;14.50;78.50;;;;;;5013481;28;20030;-73
2023/06/18 03:18:10;;;;;;;11.70;7.13;;;14.70;77.60;;;;;;5012731;28;20861;-73
2023/06/18 03:20:35;;;;;;;10.27;7.10;;;14.90;77.10;;;;;;5000579;28;20045;-73
2023/06/18 03:23:01;;;;;;;9.90;7.40;;;15.10;76.40;;;;;;5016792;28;20029;-73
2023/06/18 03:25:26;;;;;;;11.57;7.28;;;15.30;75.40;;;;;;5017462;28;20026;-73
2023/06/18 03:27:52;;;;;;;10.40;6.97;;;15.60;75.00;;;;;;5000175;28;20029;-73
2023/06/18 03:30:18;;;;;;;10.23;7.57;;;15.70;74.90;;;;;;5019002;28;20446;-73
2023/06/18 03:32:43;;;;;;;10.30;7.25;;;15.70;74.20;;;;;;5000728;28;20308;-73
2023/06/18 03:35:09;;;;;;;9.48;6.78;;;15.80;74.50;;;;;;5016250;28;20033;-73
2023/06/18 03:37:38;;;;;;;11.27;7.90;;;15.80;75.60;;;;;;5016698;28;20449;-73
2023/06/18 03:40:04;;;;;;;10.35;6.93;;;15.70;74.20;;;;;;5016440;28;20079;-73
2023/06/18 03:42:30;;;;;;;11.77;7.28;;;15.60;75.00;;;;;;5013007;28;20133;-73
2023/06/18 03:44:56;;;;;;;10.98;7.85;;;15.40;75.80;;;;;;5018773;28;20184;-73
2023/06/18 03:47:21;;;;;;;13.77;7.88;;;15.30;75.70;;;;;;5015050;28;20034;-73
2023/06/18 03:49:47;;;;;;;10.35;8.02;;;15.30;75.90;;;;;;5017587;28;20057;-72
2023/06/18 03:52:13;;;;;;;10.70;7.22;;;15.30;76.90;;;;;;5016565;28;20025;-73
2023/06/18 03:54:38;;;;;;;11.32;7.05;;;15.20;76.80;;;;;;5015557;28;20022;-72
2023/06/18 03:57:04;;;;;;;9.65;7.38;;;15.20;77.90;;;;;;5018295;28;20026;-73
2023/06/18 03:59:31;;;;;;;9.88;6.88;;;15.20;78.10;;;;;;5018261;28;20561;-73
2023/06/18 04:01:57;;;;;;;10.40;6.78;;;15.10;78.60;;;;;;5018441;28;20033;-73
2023/06/18 04:04:23;;;;;;;10.93;7.10;;;15.10;78.80;;;;;;5016648;28;20363;-73
2023/06/18 04:06:48;;;;;;;8.93;6.85;;;15.10;78.80;;;;;;5013271;28;20421;-73
2023/06/18 04:09:14;;;;;;;10.38;6.75;;;15.10;79.20;;;;;;5015947;28;20029;-73
2023/06/18 04:11:42;;;;;;;10.85;7.78;;;15.10;78.80;;;;;;5016225;28;20026;-73
2023/06/18 04:14:09;;;;;;;12.52;7.72;;;15.00;80.40;;;;;;5016201;28;20494;-73
2023/06/18 04:16:34;;;;;;;12.73;7.78;;;15.00;79.60;;;;;;5015022;28;20143;-73
2023/06/18 04:19:00;;;;;;;12.30;8.52;;;14.90;79.60;;;;;;5013573;28;20018;-73
2023/06/18 04:21:26;;;;;;;10.60;7.90;;;14.90;80.50;;;;;;5016699;28;20113;-72
2023/06/18 04:23:53;;;;;;;10.52;7.65;;;14.80;80.30;;;;;;5014048;28;20315;-72
2023/06/18 04:26:19;;;;;;;12.85;7.78;;;14.80;80.00;;;;;;5009392;28;20026;-73
2023/06/18 04:28:44;;;;;;;10.57;7.38;;;14.80;81.20;;;;;;5013915;28;20415;-73
2023/06/18 04:31:10;;;;;;;12.40;7.35;;;14.80;81.60;;;;;;5015672;28;20041;-72
2023/06/18 04:33:36;;;;;;;9.23;7.43;;;14.80;82.40;;;;;;5016558;28;20029;-72
2023/06/18 04:36:01;;;;;;;10.32;7.22;;;14.80;83.30;;;;;;5015285;28;20030;-73
2023/06/18 04:38:27;;;;;;;11.27;7.57;;;14.80;83.70;;;;;;4994059;28;20062;-73
2023/06/18 04:40:53;;;;;;;11.25;7.00;;;14.80;83.30;;;;;;5013638;28;20029;-72
2023/06/18 04:43:18;;;;;;;10.80;7.88;;;14.80;83.60;;;;;;5014832;28;20034;-72
2023/06/18 04:45:46;;;;;;;11.07;7.82;;;14.80;83.20;;;;;;5016222;28;20139;-72
2023/06/18 04:48:12;;;;;;;12.25;7.45;;;14.80;83.70;;;;;;5015678;28;20026;-73
2023/06/18 04:50:38;;;;;;;9.38;7.25;;;14.80;84.60;;;;;;4994894;28;20026;-73
2023/06/18 04:53:04;;;;;;;10.40;7.10;;;14.80;84.70;;;;;;5014323;28;20058;-73
2023/06/18 04:55:29;;;;;;;9.65;7.25;;;14.80;85.00;;;;;;5014904;28;20135;-73
2023/06/18 04:57:56;;;;;;;12.10;7.68;;;14.90;85.70;;;;;;5016521;28;20029;-74
2023/06/18 05:00:22;;;;;;;13.00;8.18;;;14.80;86.00;;;;;;5015469;28;20054;-73
2023/06/18 05:02:47;;;;;;;11.00;8.05;;;14.80;86.30;;;;;;5016427;28;20338;-73
2023/06/18 05:05:15;;;;;;;10.38;7.78;;;14.80;86.50;;;;;;5014709;28;20030;-72
2023/06/18 05:07:40;;;;;;;9.40;7.35;;;14.90;86.80;;;;;;5012607;28;20029;-72
2023/06/18 05:10:06;;;;;;;11.50;7.75;;;15.00;86.40;;;;;;5014655;28;20099;-73
2023/06/18 05:12:32;;;;;;;10.35;7.70;;;15.10;86.80;;;;;;5014382;28;20029;-73
2023/06/18 05:14:57;;;;;;;12.02;7.00;;;15.20;86.40;;;;;;5013186;28;20032;-74
2023/06/18 05:17:23;;;;;;;9.80;6.90;;;15.30;85.70;;;;;;5013910;28;20029;-73
2023/06/18 05:19:48;;;;;;;10.38;8.05;;;15.50;86.20;;;;;;5012189;28;20026;-73
2023/06/18 05:22:14;;;;;;;9.70;6.70;;;15.70;86.80;;;;;;5011787;28;20355;-73
2023/06/18 05:24:42;;;;;;;11.50;8.00;;;15.90;85.70;;;;;;5014172;28;20296;-73
2023/06/18 05:27:08;;;;;;;9.25;6.63;;;16.10;84.60;;;;;;4996154;28;20026;-73
2023/06/18 05:29:34;;;;;;;10.43;6.88;;;16.30;83.30;;;;;;5013149;28;20084;-73
2023/06/18 05:31:59;;;;;;;9.85;7.15;;;16.50;83.00;;;;;;5015178;28;20022;-73
2023/06/18 05:34:25;;;;;;;9.98;7.13;;;16.80;81.20;;;;;;5016038;28;20033;-73
2023/06/18 05:36:50;;;;;;;10.82;7.20;;;17.10;78.90;;;;;;5013084;28;20064;-73
2023/06/18 05:39:16;;;;;;;9.02;6.72;;;17.30;80.40;;;;;;5014929;28;20030;-73
2023/06/18 05:41:41;;;;;;;11.05;6.72;;;17.50;80.20;;;;;;5014316;28;20164;-73
2023/06/18 05:44:07;;;;;;;9.57;7.03;;;17.80;80.80;;;;;;5015174;28;20038;-73
2023/06/18 05:46:33;;;;;;;13.43;7.20;;;18.00;79.10;;;;;;5014580;28;20030;-73
2023/06/18 05:48:58;;;;;;;9.10;6.95;;;18.20;79.10;;;;;;5012929;28;20025;-73
2023/06/18 05:51:24;;;;;;;8.27;6.40;;;18.20;77.20;;;;;;5013208;28;20045;-73
2023/06/18 05:53:49;;;;;;;10.52;6.85;;;18.40;76.50;;;;;;5012896;28;20097;-73
2023/06/18 05:56:15;;;;;;;9.60;7.22;;;18.70;75.90;;;;;;5014489;28;20212;-73
2023/06/18 05:58:41;;;;;;;9.90;6.85;;;18.70;75.70;;;;;;5014989;28;20026;-73
2023/06/18 06:01:06;;;;;;;11.40;7.20;;;18.80;74.00;;;;;;5014437;28;20434;-73
2023/06/18 06:03:35;;;;;;;10.10;6.90;;;18.90;74.10;;;;;;5016119;28;20029;-73
2023/06/18 06:06:01;;;;;;;9.73;7.00;;;19.10;74.80;;;;;;5014302;28;20100;-73
2023/06/18 06:08:26;;;;;;;11.20;7.68;;;19.30;74.30;;;;;;5013255;28;20030;-73
2023/06/18 06:10:52;;;;;;;13.82;8.25;;;19.50;74.80;;;;;;5012057;28;20029;-73
2023/06/18 06:13:17;;;;;;;9.98;7.43;;;19.70;74.70;;;;;;5012565;28;20038;-73
2023/06/18 06:15:43;;;;;;;9.95;7.55;;;20.00;74.60;;;;;;5015280;28;20026;-73
2023/06/18 06:18:09;;;;;;;9.52;7.28;;;20.20;73.40;;;;;;5012118;28;20041;-73
2023/06/18 06:20:35;;;;;;;10.23;7.25;;;20.40;73.20;;;;;;5015742;28;20033;-73
2023/06/18 06:23:00;;;;;;;10.40;7.00;;;20.60;71.70;;;;;;5013082;28;20092;-73
2023/06/18 06:25:26;;;;;;;10.73;7.15;;;20.70;69.90;;;;;;5012433;28;20026;-74
2023/06/18 06:27:51;;;;;;;9.55;6.70;;;20.80;68.90;;;;;;5013044;28;20034;-73
2023/06/18 06:30:17;;;;;;;9.60;7.03;;;20.80;68.80;;;;;;5014178;28;20380;-74
2023/06/18 06:32:42;;;;;;;9.55;6.70;;;20.90;69.20;;;;;;5014826;28;20087;-73
2023/06/18 06:35:08;;;;;;;11.07;8.00;;;20.90;69.20;;;;;;5013977;28;20037;-73
2023/06/18 06:37:34;;;;;;;13.35;7.57;;;21.00;71.10;;;;;;5014383;28;20034;-73
2023/06/18 06:39:59;;;;;;;10.88;7.35;;;20.90;71.20;;;;;;5015032;28;20069;-73
2023/06/18 06:42:25;;;;;;;12.80;6.82;;;20.90;70.70;;;;;;5014915;28;20053;-73
2023/06/18 06:44:52;;;;;;;10.40;7.15;;;21.00;69.60;;;;;;5015706;28;20022;-73
2023/06/18 06:47:17;;;;;;;10.13;6.93;;;21.00;69.80;;;;;;5021112;28;20157;-73
2023/06/18 06:49:45;;;;;;;9.63;6.90;;;21.10;70.00;;;;;;5010751;28;20101;-74
2023/06/18 06:52:11;;;;;;;12.07;8.15;;;21.20;70.70;;;;;;5006938;28;20018;-73
2023/06/18 06:54:36;;;;;;;10.52;6.95;;;21.40;71.10;;;;;;5023970;28;20033;-73
2023/06/18 06:57:02;;;;;;;10.95;7.28;;;21.50;71.40;;;;;;5002097;28;20044;-74
2023/06/18 06:59:28;;;;;;;8.82;7.20;;;21.60;71.40;;;;;;5014149;28;20430;-74
2023/06/18 07:01:53;;;;;;;10.30;7.47;;;21.80;70.70;;;;;;5014767;28;20326;-73
2023/06/18 07:04:19;;;;;;;9.05;7.07;;;22.00;70.10;;;;;;5018660;28;20030;-73
2023/06/18 07:06:44;;;;;;;10.57;7.05;;;22.10;70.90;;;;;;4998739;28;20034;-74
2023/06/18 07:09:10;;;;;;;9.75;7.05;;;22.20;70.30;;;;;;5017887;28;20034;-81
2023/06/18 07:11:40;;;;;;;11.38;7.20;;;22.40;70.40;;;;;;5017076;28;20112;-73
2023/06/18 07:14:06;;;;;;;10.40;7.05;;;22.30;69.50;;;;;;5015833;28;20029;-73
2023/06/18 07:16:32;;;;;;;10.02;6.90;;;22.40;69.20;;;;;;4998684;28;20318;-73
2023/06/18 07:18:58;;;;;;;13.20;6.97;;;22.60;69.30;;;;;;5014999;28;20029;-73
2023/06/18 07:21:25;;;;;;;9.68;6.70;;;22.70;67.60;;;;;;5020923;28;20018;-73
2023/06/18 07:23:52;;;;;;;9.63;6.53;;;23.00;68.00;;;;;;5007680;28;20076;-72
2023/06/18 07:26:18;;;;;;;11.70;7.05;;;23.60;66.80;;;;;;5017167;28;20088;-72
2023/06/18 07:28:43;;;;;;;8.60;6.38;;;24.50;67.10;;;;;;5022553;28;21255;-73
2023/06/18 07:31:09;;;;;;;8.02;6.50;;;25.10;66.30;;;;;;5018911;28;20125;-73
2023/06/18 07:33:34;;;;;;;8.32;6.20;;;25.70;64.40;;;;;;4997126;28;20029;-73
2023/06/18 07:36:00;;;;;;;8.82;6.60;;;26.20;64.10;;;;;;5014569;28;20040;-73
2023/06/18 07:38:26;;;;;;;10.02;6.72;;;26.10;63.50;;;;;;5014936;28;20033;-72
2023/06/18 07:40:52;;;;;;;9.95;6.68;;;26.20;63.40;;;;;;5017237;28;20101;-73
2023/06/18 07:43:17;;;;;;;9.48;6.30;;;26.40;62.50;;;;;;5024721;28;20113;-72
2023/06/18 07:45:43;;;;;;;8.85;6.50;;;26.40;62.50;;;;;;5006954;28;20117;-73
2023/06/18 07:48:08;;;;;;;10.73;6.82;;;26.30;63.30;;;;;;5017552;28;20434;-73
2023/06/18 07:50:34;;;;;;;9.07;6.63;;;26.80;62.50;;;;;;5017110;28;20061;-73
2023/06/18 07:53:00;;;;;;;8.43;6.10;;;27.10;62.40;;;;;;5013822;28;20037;-72
2023/06/18 07:55:25;;;;;;;8.50;6.90;;;27.40;61.50;;;;;;5012671;28;20437;-74
2023/06/18 07:57:51;;;;;;;11.52;6.85;;;27.70;60.50;;;;;;5005749;28;20036;-72
2023/06/18 08:00:20;;;;;;;10.05;7.05;;;27.90;60.80;;;;;;5012209;28;20318;-73
2023/06/18 08:02:48;;;;;;;9.10;6.43;;;27.90;60.10;;;;;;5011784;28;20091;-73
2023/06/18 08:05:14;;;;;;;9.93;6.35;;;27.70;59.60;;;;;;5013285;28;20033;-73
2023/06/18 08:07:39;;;;;;;7.65;6.18;;;27.90;60.40;;;;;;5013494;28;20034;-73
2023/06/18 08:10:06;;;;;;;7.72;6.50;;;28.50;59.80;;;;;;5015419;28;20110;-73
2023/06/18 08:12:31;;;;;;;8.63;6.45;;;28.50;58.90;;;;;;5016586;28;20033;-73
2023/06/18 08:14:57;;;;;;;11.38;7.32;;;28.50;58.90;;;;;;5015372;28;20022;-73
2023/06/18 08:17:22;;;;;;;8.57;6.15;;;28.00;59.60;;;;;;5013630;28;20034;-73
2023/06/18 08:19:48;;;;;;;8.77;6.45;;;27.70;60.70;;;;;;5015412;28;20064;-73
2023/06/18 08:22:17;;;;;;;10.55;6.88;;;27.80;60.20;;;;;;5016050;28;20029;-73
2023/06/18 08:24:46;;;;;;;8.38;6.63;;;27.60;60.80;;;;;;5013709;28;20095;-73
2023/06/18 08:27:12;;;;;;;10.35;6.75;;;28.00;59.90;;;;;;5013808;28;20080;-73
2023/06/18 08:29:37;;;;;;;8.15;6.30;;;28.10;60.00;;;;;;5014370;28;20461;-72
2023/06/18 08:32:06;;;;;;;8.63;6.70;;;28.90;59.30;;;;;;5014880;28;20038;-73
2023/06/18 08:34:32;;;;;;;10.48;6.63;;;29.30;57.90;;;;;;5014587;28;20091;-73
2023/06/18 08:36:59;;;;;;;8.40;6.05;;;29.40;57.20;;;;;;5014147;28;20026;-73
2023/06/18 08:39:26;;;;;;;9.20;6.15;;;29.70;57.90;;;;;;5008969;28;20033;-73
2023/06/18 08:41:52;;;;;;;10.05;6.35;;;30.40;57.00;;;;;;5011397;28;20064;-73
2023/06/18 08:44:21;;;;;;;7.90;6.30;;;30.30;57.00;;;;;;5014039;28;20113;-73
2023/06/18 08:46:49;;;;;;;8.90;6.78;;;30.00;56.80;;;;;;5012903;28;20026;-73
2023/06/18 08:49:16;;;;;;;10.38;5.82;;;30.20;57.10;;;;;;5015940;28;20637;-73
2023/06/18 08:51:44;;;;;;;7.95;5.88;;;30.60;56.00;;;;;;5015690;28;20100;-72
2023/06/18 08:54:14;;;;;;;7.72;5.57;;;31.20;53.80;;;;;;5014285;28;20026;-72
2023/06/18 08:56:49;;;;;;;9.70;6.40;;;31.50;54.60;;;;;;5010139;28;20117;-72
2023/06/18 08:59:15;;;;;;;7.47;6.07;;;31.00;54.00;;;;;;5008919;28;20034;-72
2023/06/18 09:01:43;;;;;;;8.30;6.05;;;31.30;53.70;;;;;;5011934;28;20032;-73
2023/06/18 09:04:09;;;;;;;10.02;6.40;;;30.90;53.20;;;;;;5010463;28;20034;-73
2023/06/18 09:06:36;;;;;;;7.90;6.05;;;30.00;55.30;;;;;;5007809;28;20109;-73
2023/06/18 09:09:02;;;;;;;10.20;6.22;;;30.20;55.50;;;;;;5013357;28;20038;-72
2023/06/18 09:11:29;;;;;;;11.35;6.22;;;30.60;53.50;;;;;;5011619;28;20472;-72
2023/06/18 09:13:54;;;;;;;11.15;6.90;;;30.70;54.20;;;;;;5015108;28;20057;-72
2023/06/18 09:16:21;;;;;;;9.02;6.15;;;30.80;54.10;;;;;;5013406;28;20053;-73
2023/06/18 09:18:47;;;;;;;11.70;6.50;;;31.00;52.80;;;;;;5015167;28;20030;-72
2023/06/18 09:21:35;;;;;;;12.57;6.65;;;31.00;52.40;;;;;;5016864;28;20022;-73
2023/06/18 09:24:00;;;;;;;8.73;6.63;;;30.70;52.90;;;;;;5014378;28;20168;-72
2023/06/18 09:26:26;;;;;;;7.15;5.72;;;31.10;52.40;;;;;;5017362;28;20057;-73
2023/06/18 09:28:55;;;;;;;9.27;5.85;;;31.60;52.40;;;;;;5013428;28;20538;-73
2023/06/18 09:31:25;;;;;;;12.77;6.57;;;32.00;50.60;;;;;;5011005;28;20370;-73
2023/06/18 09:33:51;;;;;;;7.82;6.03;;;32.10;51.60;;;;;;4981843;28;20052;-73
2023/06/18 09:36:17;;;;;;;7.25;5.57;;;31.80;51.00;;;;;;5014473;28;20545;-73
2023/06/18 09:38:42;;;;;;;8.63;6.20;;;31.90;49.30;;;;;;5021925;28;20113;-72
2023/06/18 09:41:13;;;;;;;8.82;5.70;;;31.80;51.20;;;;;;5031158;28;20049;-73
2023/06/18 09:43:48;;;;;;;8.43;5.95;;;31.90;51.10;;;;;;4998233;28;20040;-72
2023/06/18 09:46:15;;;;;;;10.20;6.25;;;32.30;50.00;;;;;;5012921;28;20053;-73
2023/06/18 09:48:43;;;;;;;9.80;5.40;;;32.50;49.10;;;;;;4998023;28;20037;-73
2023/06/18 09:51:10;;;;;;;9.02;6.38;;;32.70;49.00;;;;;;5014993;28;20336;-73
2023/06/18 09:53:36;;;;;;;10.48;6.22;;;33.10;50.30;;;;;;4994858;28;20030;-73
2023/06/18 09:56:10;;;;;;;9.45;6.20;;;32.40;48.30;;;;;;5012101;28;20318;-73
2023/06/18 09:58:49;;;;;;;8.07;5.57;;;32.30;48.40;;;;;;5017877;28;20022;-73
2023/06/18 10:01:17;;;;;;;8.45;5.90;;;32.70;48.30;;;;;;5007188;28;20126;-73
2023/06/18 10:03:43;;;;;;;7.95;5.32;;;32.50;48.20;;;;;;5014355;28;20040;-73
2023/06/18 10:06:16;;;;;;;8.48;5.63;;;32.50;48.50;;;;;;5012011;28;20120;-73
2023/06/18 10:08:45;;;;;;;9.02;5.90;;;33.00;46.70;;;;;;5013457;28;20104;-73
2023/06/18 10:11:12;;;;;;;8.93;5.75;;;33.30;46.50;;;;;;5015053;28;20026;-73
2023/06/18 10:13:49;;;;;;;8.48;6.05;;;33.00;47.30;;;;;;5015333;28;20041;-73
2023/06/18 10:16:18;;;;;;;8.10;5.70;;;32.40;47.60;;;;;;5016264;28;20022;-73
2023/06/18 10:19:12;;;;;;;8.85;5.72;;;31.80;48.10;;;;;;5002903;28;20112;-73
2023/06/18 10:21:44;;;;;;;7.30;5.80;;;32.30;48.40;;;;;;5013515;28;20100;-73
2023/06/18 10:24:17;;;;;;;9.23;6.00;;;32.90;46.60;;;;;;5016001;28;20088;-73
2023/06/18 10:26:43;;;;;;;7.53;5.43;;;32.30;47.00;;;;;;5015683;28;20030;-73
2023/06/18 10:29:10;;;;;;;8.60;6.20;;;31.50;48.40;;;;;;5011331;28;20033;-73
2023/06/18 10:31:37;;;;;;;10.20;5.75;;;31.70;47.90;;;;;;5015512;28;20046;-73
2023/06/18 10:34:03;;;;;;;7.90;5.40;;;32.00;47.40;;;;;;5017027;28;20105;-73
2023/06/18 10:36:29;;;;;;;9.18;5.70;;;32.80;46.70;;;;;;5017600;28;20080;-73
2023/06/18 10:38:56;;;;;;;10.00;5.60;;;33.10;46.90;;;;;;5012317;28;20061;-73
2023/06/18 10:41:22;;;;;;;9.80;5.75;;;32.80;45.70;;;;;;5018829;28;20049;-73
2023/06/18 10:43:52;;;;;;;8.45;5.40;;;32.40;46.30;;;;;;5014099;28;20022;-73
2023/06/18 10:46:19;;;;;;;7.10;5.43;;;32.40;47.70;;;;;;5025224;28;20046;-73
2023/06/18 10:49:11;;;;;;;8.50;6.00;;;32.90;47.10;;;;;;5019367;28;20056;-73
2023/06/18 10:51:37;;;;;;;7.55;6.15;;;34.00;46.80;;;;;;5016961;28;20038;-73
2023/06/18 10:54:21;;;;;;;8.23;6.32;;;33.90;46.00;;;;;;5014039;28;20084;-73
2023/06/18 10:56:57;;;;;;;9.05;5.95;;;32.80;46.20;;;;;;4997525;28;20032;-72
2023/06/18 10:59:45;;;;;;;8.68;5.68;;;31.90;46.70;;;;;;5015696;28;20032;-73
2023/06/18 11:02:12;;;;;;;7.78;5.50;;;32.30;47.80;;;;;;5014523;28;20030;-73
2023/06/18 11:04:40;;;;;;;8.20;6.03;;;32.50;46.40;;;;;;5017696;28;20105;-73
2023/06/18 11:07:12;;;;;;;8.82;5.63;;;32.60;45.80;;;;;;5006053;28;20331;-73
2023/06/18 11:09:49;;;;;;;9.50;5.97;;;32.60;46.50;;;;;;5017479;28;20357;-73
2023/06/18 11:12:33;;;;;;;9.75;6.60;;;33.30;46.20;;;;;;5014370;28;20026;-73
2023/06/18 11:15:19;;;;;;;8.77;6.25;;;33.00;45.60;;;;;;5016766;28;20025;-73
2023/06/18 11:17:55;;;;;;;8.18;6.10;;;31.70;47.50;;;;;;5007289;28;20092;-73
2023/06/18 11:20:22;;;;;;;9.93;6.13;;;31.70;47.60;;;;;;5015820;28;20029;-73
2023/06/18 11:22:52;;;;;;;7.78;6.13;;;31.90;46.60;;;;;;5008506;28;20347;-72
2023/06/18 11:25:19;;;;;;;8.38;6.40;;;32.10;47.10;;;;;;5017350;28;20029;-73
2023/06/18 11:27:46;;;;;;;7.97;5.78;;;32.00;46.50;;;;;;5016879;28;20041;-73
2023/06/18 11:30:13;;;;;;;8.18;5.78;;;32.50;47.50;;;;;;5016092;28;20052;-73
2023/06/18 11:32:40;;;;;;;11.13;6.22;;;32.80;46.30;;;;;;5014715;28;20022;-73
2023/06/18 11:35:07;;;;;;;8.18;5.68;;;32.20;46.70;;;;;;5009723;28;20053;-73
2023/06/18 11:37:33;;;;;;;7.82;5.97;;;32.00;47.30;;;;;;5011768;28;20026;-73
2023/06/18 11:39:59;;;;;;;9.35;6.00;;;31.80;47.50;;;;;;5017011;28;20049;-72
2023/06/18 11:42:28;;;;;;;11.40;5.82;;;31.80;47.80;;;;;;5017044;28;20045;-73
2023/06/18 11:44:58;;;;;;;9.82;6.68;;;32.30;47.50;;;;;;5016944;28;20157;-72
2023/06/18 11:47:24;;;;;;;7.53;5.32;;;32.30;47.60;;;;;;5017136;28;20105;-72
2023/06/18 11:49:51;;;;;;;9.07;5.47;;;32.60;47.40;;;;;;5016130;28;20423;-72
2023/06/18 11:52:24;;;;;;;10.57;6.10;;;33.20;45.60;;;;;;5014639;28;20033;-72
2023/06/18 11:54:51;;;;;;;10.00;5.90;;;32.80;45.70;;;;;;5011581;28;20100;-72
2023/06/18 11:57:19;;;;;;;10.07;5.43;;;32.90;46.70;;;;;;5015013;28;20033;-72
2023/06/18 11:59:46;;;;;;;9.35;6.03;;;32.60;46.30;;;;;;5016878;28;20025;-73
2023/06/18 12:02:25;;;;;;;11.98;6.32;;;32.70;45.70;;;;;;5014132;28;20026;-73
2023/06/18 12:04:51;;;;;;;8.63;5.45;;;32.40;46.60;;;;;;5012236;28;20026;-73
2023/06/18 12:07:21;;;;;;;7.60;5.43;;;32.60;46.70;;;;;;5015417;28;20089;-73
2023/06/18 12:09:52;;;;;;;9.50;5.70;;;33.20;45.50;;;;;;4999226;28;20040;-74
2023/06/18 12:12:38;;;;;;;7.40;5.55;;;33.40;45.10;;;;;;5017475;28;20164;-74
2023/06/18 12:15:13;;;;;;;10.32;5.93;;;33.60;46.00;;;;;;5016192;28;20430;-74
2023/06/18 12:18:02;;;;;;;9.75;5.68;;;33.40;45.30;;;;;;5015903;28;20113;-72
2023/06/18 12:20:29;;;;;;;8.30;5.75;;;33.30;44.50;;;;;;5011060;28;20026;-73
2023/06/18 12:22:56;;;;;;;11.02;5.75;;;33.60;45.00;;;;;;5016036;28;20048;-73
2023/06/18 12:25:24;;;;;;;7.80;5.82;;;33.90;44.40;;;;;;5014339;28;20477;-73
2023/06/18 12:27:50;;;;;;;10.65;5.70;;;33.50;44.70;;;;;;5017841;28;20084;-74
2023/06/18 12:30:16;;;;;;;8.93;5.63;;;33.10;46.10;;;;;;5009654;28;20323;-73
2023/06/18 12:32:42;;;;;;;7.75;5.35;;;33.50;45.60;;;;;;5015099;28;20038;-73
2023/06/18 12:35:15;;;;;;;7.88;5.72;;;33.70;44.30;;;;;;5018910;28;20022;-73
2023/06/18 12:37:47;;;;;;;8.10;5.80;;;34.60;44.00;;;;;;5016724;28;20030;-73
2023/06/18 12:40:24;;;;;;;7.50;5.82;;;35.60;43.10;;;;;;5012482;28;20465;-72
2023/06/18 12:42:51;;;;;;;6.82;5.20;;;34.40;43.30;;;;;;5016484;28;20046;-72